This is the latest recevied weather packets stored in our database for station/object HS5HBQ-1. If no packets are shown the sender has not sent any weather packets the latest 10 day(s).
| Time | Temp. | Humidity | Pressure | Rain* | Wind** | Luminosity | Snow |
|---|---|---|---|---|---|---|---|
| 1778131421 | 33.89° C | 46% | 973 hPa | - | - | 0 W/m² | - |
| 1778130797 | 34.44° C | 45% | 973 hPa | - | - | 0 W/m² | - |
| 1778130172 | 33.89° C | 45% | 973 hPa | - | - | 0 W/m² | - |
| 1778129548 | 33.89° C | 45% | 973 hPa | - | - | 0 W/m² | - |
| 1778128924 | 34.44° C | 46% | 973 hPa | - | - | 0 W/m² | - |
| 1778128300 | 33.89° C | 48% | 973 hPa | - | - | 0 W/m² | - |
| 1778127676 | 33.89° C | 47% | 974 hPa | - | - | 0 W/m² | - |
| 1778127052 | 33.33° C | 49% | 974 hPa | - | - | 0 W/m² | - |
| 1778126427 | 33.33° C | 49% | 974 hPa | - | - | 0 W/m² | - |
| 1778125803 | 33.33° C | 47% | 974 hPa | - | - | 0 W/m² | - |
| 1778125179 | 32.78° C | 49% | 974 hPa | - | - | 0 W/m² | - |
| 1778124554 | 32.78° C | 48% | 974 hPa | - | - | 0 W/m² | - |
| 1778123930 | 34.44° C | 46% | 974 hPa | - | - | 0 W/m² | - |
| 1778123306 | 34.44° C | 46% | 974 hPa | - | - | 0 W/m² | - |
| 1778122681 | 34.44° C | 46% | 974 hPa | - | - | 0 W/m² | - |
| 1778122057 | 33.89° C | 46% | 974 hPa | - | - | 0 W/m² | - |
| 1778121432 | 33.89° C | 47% | 975 hPa | - | - | 0 W/m² | - |
| 1778120808 | 33.33° C | 49% | 975 hPa | - | - | 0 W/m² | - |
| 1778120184 | 32.22° C | 53% | 975 hPa | - | - | 0 W/m² | - |
| 1778119559 | 31.67° C | 52% | 975 hPa | - | - | 0 W/m² | - |
| 1778118934 | 32.22° C | 53% | 975 hPa | - | - | 0 W/m² | - |
| 1778118310 | 32.22° C | 52% | 975 hPa | - | - | 0 W/m² | - |
| 1778117686 | 32.22° C | 53% | 975 hPa | - | - | 0 W/m² | - |
| 1778117061 | 31.67° C | 54% | 975 hPa | - | - | 0 W/m² | - |
| 1778116437 | 32.22° C | 51% | 975 hPa | - | - | 0 W/m² | - |
* Rain since midnight (hover to see other rain measurements)
** Current wind speed in m/s (hover to see current wind gust speed)